Terminal Aerodrome Forecast
Issued by NWS Green Bay, WI

Home | Current Version | Previous Version | Text Only | Print | Product List | Glossary On
Versions: 1 2 3 4 5 6 7 8 9 10 11 12 13 14 15 16 17 18 19 20 21 22 23 24 25 26 27 28 29 30 31 32 33 34
000
FTUS43 KGRB 011500 AAB
TAFGRB
TAF AMD
KGRB 011514Z 0115/0212 13007KT P6SM OVC027
     FM012000 14008KT P6SM BKN025 BKN080
     FM020100 15006KT 5SM BR SCT009 OVC015
      TEMPO 0201/0205 2SM -RA BR BKN009
     FM020500 13004KT 2SM -RA BR OVC008=

USA.gov is the U.S. government's official web portal to all federal, state and local government web resources and services.